Time;durP1;ratioP1;P1;durP2;ratioP2;P2;SDS_P1;SDS_P2;PMS_P1;PMS_P2;Temp;Humidity;BMP_temperature;BMP_pressure;BME280_temperature;BME280_humidity;BME280_pressure;Samples;Min_cycle;Max_cycle;Signal;HPM_P1;HPM_P2
2021/11/22 00:01:14;;;;;;;;;5.25;5.00;;;;;6.74;70.33;100952.16;5098046;27;61990;-61
2021/11/22 00:03:39;;;;;;;;;12.75;9.50;;;;;6.75;70.12;100945.19;5079859;27;59608;-61
2021/11/22 00:06:05;;;;;;;;;8.50;5.75;;;;;6.72;70.33;100950.59;5098094;27;62212;-62
2021/11/22 00:08:30;;;;;;;;;11.50;7.50;;;;;6.72;70.33;100959.25;5098368;27;46153;-62
2021/11/22 00:10:56;;;;;;;;;8.00;6.00;;;;;6.73;70.08;100957.50;5079793;27;61278;-61
2021/11/22 00:13:21;;;;;;;;;11.00;8.25;;;;;6.71;70.33;100964.59;5079710;27;58902;-61
2021/11/22 00:15:46;;;;;;;;;11.00;8.00;;;;;6.70;70.25;100957.69;5098561;27;45350;-61
2021/11/22 00:18:12;;;;;;;;;11.50;7.50;;;;;6.69;70.30;100962.06;5097875;27;61847;-62
2021/11/22 00:20:37;;;;;;;;;9.75;7.75;;;;;6.67;70.38;100954.34;5097937;27;58735;-61
2021/11/22 00:23:03;;;;;;;;;9.50;8.75;;;;;6.65;70.28;100958.84;5098248;27;45506;-61
2021/11/22 00:25:28;;;;;;;;;10.75;8.75;;;;;6.65;70.46;100950.16;5098047;27;45394;-61
2021/11/22 00:27:53;;;;;;;;;9.25;8.00;;;;;6.66;70.43;100957.06;5098056;27;46356;-62
2021/11/22 00:30:19;;;;;;;;;11.50;8.50;;;;;6.67;70.50;100958.72;5079181;27;60442;-61
2021/11/22 00:32:45;;;;;;;;;9.25;7.00;;;;;6.66;70.59;100962.28;5097666;27;56345;-61
2021/11/22 00:35:10;;;;;;;;;10.25;7.50;;;;;6.67;70.39;100964.81;5098146;27;45362;-62
2021/11/22 00:37:37;;;;;;;;;12.00;8.75;;;;;6.66;70.45;100963.13;5097910;27;46205;-61
2021/11/22 00:40:04;;;;;;;;;8.25;8.00;;;;;6.66;70.29;100959.66;5096738;27;45716;-61
2021/11/22 00:42:29;;;;;;;;;8.50;6.00;;;;;6.67;70.63;100956.97;5079944;27;45291;-61
2021/11/22 00:44:56;;;;;;;;;11.00;7.00;;;;;6.66;70.45;100960.50;5097118;27;64639;-61
2021/11/22 00:47:22;;;;;;;;;10.75;8.00;;;;;6.67;70.42;100970.03;5096963;27;46342;-61
2021/11/22 00:49:47;;;;;;;;;10.75;8.25;;;;;6.70;70.24;100968.16;5097067;27;62637;-61
2021/11/22 00:52:13;;;;;;;;;9.75;7.00;;;;;6.70;70.29;100975.97;5098057;27;45499;-61
2021/11/22 00:54:38;;;;;;;;;9.50;7.25;;;;;6.68;70.28;100976.06;5078861;27;62460;-61
2021/11/22 00:57:04;;;;;;;;;10.75;8.50;;;;;6.68;70.31;100989.97;5096890;27;68106;-61
2021/11/22 00:59:29;;;;;;;;;7.50;6.25;;;;;6.67;70.14;100985.69;5097785;27;45499;-61
2021/11/22 01:01:54;;;;;;;;;9.00;8.25;;;;;6.66;70.18;100991.00;5096936;27;65606;-61
2021/11/22 01:04:20;;;;;;;;;9.25;6.50;;;;;6.64;70.33;100996.34;5097185;27;56067;-61
2021/11/22 01:06:46;;;;;;;;;11.00;10.00;;;;;6.66;70.18;100996.22;5097770;27;46193;-61
2021/11/22 01:09:11;;;;;;;;;5.75;5.00;;;;;6.66;70.28;100993.59;5097542;27;45213;-61
2021/11/22 01:11:37;;;;;;;;;8.00;5.00;;;;;6.66;70.17;100988.38;5097947;27;45246;-61
2021/11/22 01:14:02;;;;;;;;;8.75;6.50;;;;;6.64;70.16;100998.94;5079045;27;52845;-61
2021/11/22 01:16:30;;;;;;;;;14.75;7.00;;;;;6.67;70.03;101000.50;5097178;27;54934;-61
2021/11/22 01:18:55;;;;;;;;;15.75;9.00;;;;;6.65;70.20;100998.00;5063001;27;45407;-61
2021/11/22 01:21:20;;;;;;;;;9.50;5.00;;;;;6.65;69.97;101005.00;5097911;27;45525;-62
2021/11/22 01:23:46;;;;;;;;;7.25;5.00;;;;;6.64;70.01;101000.69;5096674;27;63889;-61
2021/11/22 01:26:11;;;;;;;;;10.00;6.00;;;;;6.63;70.09;100999.88;5078345;27;65771;-61
2021/11/22 01:28:36;;;;;;;;;13.25;8.00;;;;;6.63;69.99;101005.09;5096893;27;59007;-61
2021/11/22 01:31:02;;;;;;;;;7.25;6.50;;;;;6.63;70.06;101009.47;5078304;27;66598;-61
2021/11/22 01:33:27;;;;;;;;;12.00;6.75;;;;;6.63;69.79;101005.09;5096630;27;65346;-61
2021/11/22 01:35:53;;;;;;;;;12.75;8.25;;;;;6.63;70.02;101005.09;5095196;27;71547;-61
2021/11/22 01:38:18;;;;;;;;;15.25;8.75;;;;;6.65;70.00;101012.81;5097260;27;45260;-61
2021/11/22 01:40:43;;;;;;;;;9.75;7.50;;;;;6.65;69.74;101010.22;5096995;27;46300;-62
2021/11/22 01:43:14;;;;;;;;;11.00;7.00;;;;;6.64;69.76;101005.94;5097344;27;45244;-61
2021/11/22 01:45:39;;;;;;;;;12.25;6.75;;;;;6.61;69.77;101009.59;5063249;27;46244;-61
2021/11/22 01:48:05;;;;;;;;;5.50;4.50;;;;;6.59;69.69;101010.63;5078881;27;45335;-61
2021/11/22 01:50:30;;;;;;;;;5.50;5.50;;;;;6.56;69.70;101009.03;5096403;27;63337;-61
2021/11/22 01:52:56;;;;;;;;;10.00;7.75;;;;;6.55;69.89;101017.81;5097036;27;45946;-61
2021/11/22 01:55:22;;;;;;;;;7.50;5.25;;;;;6.56;69.55;101029.09;5097019;27;45328;-61
2021/11/22 01:57:49;;;;;;;;;8.00;5.00;;;;;6.53;69.62;101017.91;5096917;27;45972;-62
2021/11/22 02:00:23;;;;;;;;;8.50;5.00;;;;;6.53;69.93;101024.91;5078887;27;45291;-62
2021/11/22 02:02:49;;;;;;;;;9.75;5.75;;;;;6.52;69.73;101031.06;5097179;27;45351;-61
2021/11/22 02:05:14;;;;;;;;;6.25;5.00;;;;;6.52;69.71;101031.06;5096883;27;46325;-61
2021/11/22 02:07:40;;;;;;;;;8.00;5.00;;;;;6.51;69.63;101032.00;5096759;27;45470;-61
2021/11/22 02:10:05;;;;;;;;;9.50;7.75;;;;;6.50;69.44;101041.59;5096510;27;57742;-62
2021/11/22 02:12:32;;;;;;;;;9.50;6.25;;;;;6.50;69.59;101038.16;5096850;27;45552;-61
2021/11/22 02:14:57;;;;;;;;;10.50;8.00;;;;;6.49;69.47;101034.72;5096707;27;45424;-61
2021/11/22 02:17:22;;;;;;;;;11.75;8.00;;;;;6.48;69.53;101033.03;5077642;27;68137;-61
2021/11/22 02:20:00;;;;;;;;;10.50;6.00;;;;;6.48;69.39;101042.63;5096224;27;57793;-61
2021/11/22 02:22:26;;;;;;;;;10.00;8.00;;;;;6.47;69.50;101062.69;5097059;27;45610;-61
2021/11/22 02:24:51;;;;;;;;;11.00;7.50;;;;;6.47;69.39;101056.59;5078248;27;46013;-61
2021/11/22 02:27:16;;;;;;;;;13.00;8.00;;;;;6.46;69.06;101054.94;5095704;27;68770;-61
2021/11/22 02:29:42;;;;;;;;;9.50;6.75;;;;;6.43;69.25;101055.13;5096000;27;59390;-61
2021/11/22 02:32:07;;;;;;;;;8.00;8.00;;;;;6.41;69.30;101051.78;5078187;27;49095;-61
2021/11/22 02:34:32;;;;;;;;;10.25;6.25;;;;;6.38;69.25;101053.63;5095495;27;72099;-61
2021/11/22 02:36:58;;;;;;;;;7.00;5.25;;;;;6.34;69.28;101054.78;5096367;27;45412;-61
2021/11/22 02:39:23;;;;;;;;;11.25;7.50;;;;;6.32;69.48;101053.19;5095426;27;66221;-61
2021/11/22 02:41:48;;;;;;;;;8.75;5.75;;;;;6.31;69.44;101057.59;5096326;27;46772;-61
2021/11/22 02:44:14;;;;;;;;;11.50;9.00;;;;;6.28;69.29;101054.31;5095273;27;72295;-61
2021/11/22 02:46:39;;;;;;;;;9.00;7.50;;;;;6.27;69.42;101057.84;5096410;27;45527;-61
2021/11/22 02:49:05;;;;;;;;;7.75;5.00;;;;;6.26;69.32;101048.34;5099098;27;61265;-61
2021/11/22 02:51:30;;;;;;;;;10.00;7.00;;;;;6.25;69.27;101052.75;5099292;27;63416;-61
2021/11/22 02:54:02;;;;;;;;;8.75;8.00;;;;;6.22;69.23;101058.16;5098996;27;66734;-61
2021/11/22 02:56:31;;;;;;;;;6.00;5.50;;;;;6.20;69.33;101054.81;5082137;27;45340;-61
2021/11/22 02:58:57;;;;;;;;;8.75;7.75;;;;;6.17;69.32;101060.22;5081669;27;45438;-61
2021/11/22 03:01:22;;;;;;;;;10.50;7.00;;;;;6.12;69.34;101059.66;5099870;27;45399;-61
2021/11/22 03:03:48;;;;;;;;;10.50;7.00;;;;;6.12;69.47;101062.25;5098906;27;67439;-61
2021/11/22 03:06:14;;;;;;;;;7.75;7.00;;;;;6.08;69.59;101056.41;5080558;27;67440;-61
2021/11/22 03:08:41;;;;;;;;;5.75;4.75;;;;;6.07;69.57;101062.56;5099599;27;45372;-61
2021/11/22 03:11:06;;;;;;;;;8.25;7.00;;;;;6.05;69.55;101065.25;5081493;27;45660;-61
2021/11/22 03:13:32;;;;;;;;;9.50;6.75;;;;;6.05;69.23;101067.84;5099345;27;50373;-61
2021/11/22 03:15:57;;;;;;;;;6.25;6.25;;;;;6.06;69.49;101073.91;5099490;27;45295;-61
2021/11/22 03:18:23;;;;;;;;;8.75;7.75;;;;;6.06;69.57;101068.69;5098788;27;62688;-62
2021/11/22 03:20:48;;;;;;;;;8.00;5.00;;;;;6.07;69.54;101070.38;5099550;27;45478;-61
2021/11/22 03:23:13;;;;;;;;;11.50;7.50;;;;;6.06;69.40;101079.97;5099152;27;53979;-61
2021/11/22 03:25:39;;;;;;;;;11.00;7.25;;;;;6.06;69.47;101079.97;5099330;27;45381;-61
2021/11/22 03:28:04;;;;;;;;;9.75;7.00;;;;;6.04;69.25;101081.81;5098517;27;62049;-61
2021/11/22 03:30:30;;;;;;;;;9.25;8.00;;;;;6.02;69.21;101088.06;5099423;27;45636;-61
2021/11/22 03:32:55;;;;;;;;;9.25;5.00;;;;;5.98;69.33;101089.16;5080786;27;45339;-61
2021/11/22 03:35:21;;;;;;;;;10.50;8.75;;;;;5.96;69.61;101084.03;5098493;27;61582;-61
2021/11/22 03:37:46;;;;;;;;;13.50;8.50;;;;;5.94;69.62;101091.09;5099376;27;45310;-61
2021/11/22 03:40:12;;;;;;;;;10.00;8.00;;;;;5.91;69.73;101086.06;5098971;27;45506;-61
2021/11/22 03:42:51;;;;;;;;;11.00;9.00;;;;;5.90;69.67;101100.88;5099066;27;46384;-62
2021/11/22 03:45:17;;;;;;;;;7.25;5.00;;;;;5.91;69.66;101096.50;5099218;27;45960;-61
2021/11/22 03:47:42;;;;;;;;;8.50;5.50;;;;;5.91;69.52;101102.56;5063015;27;59932;-61
2021/11/22 03:50:08;;;;;;;;;12.25;9.00;;;;;5.89;69.48;101098.34;5080742;27;45531;-61
2021/11/22 03:52:33;;;;;;;;;9.25;8.00;;;;;5.87;69.51;101095.00;5098047;27;68407;-61
2021/11/22 03:54:58;;;;;;;;;11.00;9.00;;;;;5.83;69.38;101101.34;5080573;27;45287;-61
2021/11/22 03:57:27;;;;;;;;;8.75;8.25;;;;;5.81;69.67;101106.66;5098110;27;66699;-61
2021/11/22 03:59:52;;;;;;;;;11.50;9.50;;;;;5.81;69.31;101117.06;5098095;27;45389;-61
2021/11/22 04:02:17;;;;;;;;;10.25;9.00;;;;;5.77;69.47;101111.22;5098618;27;45830;-61
2021/11/22 04:04:43;;;;;;;;;12.75;8.00;;;;;5.73;69.65;101109.72;5097882;27;67769;-61
2021/11/22 04:07:08;;;;;;;;;10.00;7.00;;;;;5.72;69.74;101113.25;5098695;27;45459;-61
2021/11/22 04:09:35;;;;;;;;;14.50;9.75;;;;;5.71;69.71;101116.78;5098005;27;57931;-61
2021/11/22 04:12:00;;;;;;;;;12.25;8.00;;;;;5.71;69.89;101116.78;5098425;27;46231;-61
2021/11/22 04:14:26;;;;;;;;;15.75;11.75;;;;;5.70;69.79;101119.47;5080005;27;51229;-61
2021/11/22 04:16:51;;;;;;;;;15.00;10.25;;;;;5.69;69.65;101120.41;5097805;27;62921;-61
2021/11/22 04:19:16;;;;;;;;;12.50;10.00;;;;;5.71;69.85;101123.75;5098333;27;46773;-61
2021/11/22 04:21:42;;;;;;;;;17.50;10.25;;;;;5.71;69.72;101128.97;5080243;27;46467;-61
2021/11/22 04:24:08;;;;;;;;;13.50;9.75;;;;;5.68;69.69;101135.22;5098453;27;45375;-61
2021/11/22 04:26:33;;;;;;;;;11.25;8.75;;;;;5.70;69.94;101135.13;5098574;27;45723;-61
2021/11/22 04:28:59;;;;;;;;;15.25;11.00;;;;;5.70;69.92;101140.34;5097928;27;45368;-61
2021/11/22 04:31:25;;;;;;;;;16.50;11.25;;;;;5.69;69.77;101138.66;5098126;27;47308;-61
2021/11/22 04:33:50;;;;;;;;;14.00;9.75;;;;;5.70;69.74;101135.13;5098201;27;45333;-61
2021/11/22 04:36:16;;;;;;;;;15.50;10.00;;;;;5.69;69.91;101146.47;5097458;27;61280;-61
2021/11/22 04:38:41;;;;;;;;;10.00;7.25;;;;;5.68;70.00;101143.03;5098180;27;45415;-61
2021/11/22 04:41:07;;;;;;;;;10.50;10.00;;;;;5.69;69.74;101151.69;5097869;27;45467;-61
2021/11/22 04:43:32;;;;;;;;;10.25;7.00;;;;;5.69;69.85;101149.06;5097147;27;69944;-61
2021/11/22 04:45:57;;;;;;;;;10.25;10.25;;;;;5.69;69.75;101159.50;5098200;27;45294;-61
2021/11/22 04:48:23;;;;;;;;;12.50;10.25;;;;;5.67;69.62;101159.63;5097517;27;60559;-61
2021/11/22 04:50:48;;;;;;;;;15.75;9.00;;;;;5.67;69.77;101163.97;5097184;27;63474;-61
2021/11/22 04:53:14;;;;;;;;;14.50;10.00;;;;;5.65;69.64;101166.69;5097881;27;45379;-61
2021/11/22 04:55:39;;;;;;;;;16.00;11.75;;;;;5.60;69.76;101171.31;5097224;27;63186;-61
2021/11/22 04:58:05;;;;;;;;;13.50;10.50;;;;;5.58;69.83;101167.97;5097845;27;45563;-61
2021/11/22 05:00:31;;;;;;;;;14.75;11.50;;;;;5.57;70.04;101177.53;5097947;27;46228;-60
2021/11/22 05:02:56;;;;;;;;;12.25;10.00;;;;;5.55;70.18;101179.41;5078819;27;45458;-60
2021/11/22 05:05:21;;;;;;;;;15.25;11.50;;;;;5.57;70.23;101187.13;5097264;27;56162;-60
2021/11/22 05:07:47;;;;;;;;;20.25;12.25;;;;;5.55;70.17;101182.03;5097662;27;45584;-60
2021/11/22 05:10:13;;;;;;;;;16.25;11.75;;;;;5.55;70.24;101182.03;5097499;27;45385;-60
2021/11/22 05:12:38;;;;;;;;;18.25;13.50;;;;;5.56;70.18;101181.09;5079269;27;45411;-60
2021/11/22 05:15:05;;;;;;;;;16.00;13.75;;;;;5.56;70.20;101191.53;5079502;27;45349;-60
2021/11/22 05:17:30;;;;;;;;;16.50;13.75;;;;;5.57;70.26;101187.13;5097690;27;45557;-60
2021/11/22 05:19:55;;;;;;;;;13.50;12.00;;;;;5.54;70.32;101198.59;5096678;27;65218;-60
2021/11/22 05:22:21;;;;;;;;;14.25;10.25;;;;;5.53;70.34;101201.25;5096654;27;67630;-60
2021/11/22 05:24:49;;;;;;;;;14.50;11.25;;;;;5.51;70.30;101206.59;5097523;27;45418;-60
2021/11/22 05:27:25;;;;;;;;;14.25;13.75;;;;;5.52;70.35;101208.25;5097493;27;45508;-60
2021/11/22 05:29:50;;;;;;;;;14.75;14.75;;;;;5.53;70.49;101219.50;5097166;27;46523;-60
2021/11/22 05:32:17;;;;;;;;;16.50;13.75;;;;;5.52;70.58;101210.88;5078291;27;68855;-60
2021/11/22 05:34:46;;;;;;;;;22.50;16.50;;;;;5.52;70.52;101212.63;5097168;27;45357;-60
2021/11/22 05:37:12;;;;;;;;;15.00;13.50;;;;;5.52;70.48;101220.44;5097417;27;45644;-60
2021/11/22 05:39:37;;;;;;;;;19.50;15.00;;;;;5.49;70.78;101222.28;5078766;27;45359;-60
2021/11/22 05:42:03;;;;;;;;;15.25;12.75;;;;;5.50;70.97;101234.41;5096742;27;54593;-60
2021/11/22 05:44:32;;;;;;;;;16.25;13.75;;;;;5.51;70.81;101224.81;5097197;27;45307;-60
2021/11/22 05:46:57;;;;;;;;;20.00;14.00;;;;;5.50;70.76;101239.59;5079209;27;45481;-60
2021/11/22 05:49:22;;;;;;;;;29.25;17.25;;;;;5.51;71.08;101235.25;5096189;27;62479;-60
2021/11/22 05:51:48;;;;;;;;;21.25;16.00;;;;;5.53;71.24;101241.22;5096939;27;45517;-60
2021/11/22 05:54:13;;;;;;;;;21.75;17.75;;;;;5.54;71.04;101237.69;5096772;27;45434;-60
2021/11/22 05:56:39;;;;;;;;;21.00;19.00;;;;;5.56;71.26;101248.00;5096865;27;45392;-60
2021/11/22 05:59:04;;;;;;;;;23.50;20.25;;;;;5.58;71.14;101254.81;5096192;27;63765;-60
2021/11/22 06:01:30;;;;;;;;;21.00;21.00;;;;;5.60;71.08;101246.91;5096867;27;45485;-61
2021/11/22 06:03:55;;;;;;;;;28.25;19.75;;;;;5.64;70.92;101253.66;5096793;27;45373;-60
2021/11/22 06:06:20;;;;;;;;;26.50;22.00;;;;;5.65;71.19;101261.38;5078561;27;45217;-61
2021/11/22 06:08:46;;;;;;;;;25.00;19.75;;;;;5.67;71.15;101263.91;5096560;27;46342;-61
2021/11/22 06:11:11;;;;;;;;;24.00;21.50;;;;;5.69;70.94;101274.22;5096724;27;45254;-61
2021/11/22 06:13:37;;;;;;;;;22.25;21.00;;;;;5.69;71.23;101282.06;5096406;27;48812;-60
2021/11/22 06:16:02;;;;;;;;;23.25;23.25;;;;;5.69;70.96;101293.34;5096801;27;45225;-60
2021/11/22 06:18:28;;;;;;;;;24.25;22.00;;;;;5.71;71.17;101293.25;5096366;27;46272;-61
2021/11/22 06:20:53;;;;;;;;;26.00;22.00;;;;;5.72;70.90;101289.72;5096472;27;45363;-61
2021/11/22 06:23:18;;;;;;;;;23.75;22.00;;;;;5.73;70.88;101299.22;5098283;27;61207;-61
2021/11/22 06:25:44;;;;;;;;;23.50;19.25;;;;;5.73;70.79;101313.09;5081404;27;53154;-61
2021/11/22 06:28:09;;;;;;;;;31.50;21.00;;;;;5.74;70.85;101313.94;5099837;27;45312;-60
2021/11/22 06:30:35;;;;;;;;;26.75;21.25;;;;;5.76;71.10;101312.94;5100026;27;45371;-61
2021/11/22 06:33:00;;;;;;;;;26.00;21.00;;;;;5.77;70.98;101311.16;5099899;27;45225;-61
2021/11/22 06:35:26;;;;;;;;;27.75;18.00;;;;;5.80;70.74;101308.38;5099130;27;66251;-61
2021/11/22 06:37:51;;;;;;;;;17.50;16.00;;;;;5.82;70.68;101316.13;5098690;27;70183;-61
2021/11/22 06:40:17;;;;;;;;;17.25;16.00;;;;;5.83;70.67;101325.63;5080883;27;45447;-60
2021/11/22 06:42:42;;;;;;;;;19.75;18.50;;;;;5.85;70.80;101327.22;5100130;27;45305;-61
2021/11/22 06:45:08;;;;;;;;;18.75;16.00;;;;;5.86;70.82;101335.88;5099002;27;60835;-61
2021/11/22 06:47:33;;;;;;;;;15.75;15.25;;;;;5.87;70.71;101337.56;5099530;27;45398;-61
2021/11/22 06:49:59;;;;;;;;;21.00;16.25;;;;;5.89;70.93;101339.16;5081242;27;45469;-61
2021/11/22 06:52:24;;;;;;;;;15.00;13.25;;;;;5.91;70.80;101339.06;5099711;27;45429;-61
2021/11/22 06:54:50;;;;;;;;;17.50;17.00;;;;;5.94;70.85;101342.38;5099115;27;52779;-61
2021/11/22 06:57:16;;;;;;;;;14.50;14.00;;;;;5.99;70.76;101344.69;5064232;27;45570;-61
2021/11/22 06:59:42;;;;;;;;;18.00;16.75;;;;;6.02;70.73;101348.94;5099515;27;45316;-61
2021/11/22 07:02:13;;;;;;;;;24.50;17.25;;;;;6.04;70.60;101340.09;5098952;27;45361;-61
2021/11/22 07:04:38;;;;;;;;;20.75;17.00;;;;;6.07;70.66;101355.59;5099654;27;45317;-61
2021/11/22 07:07:04;;;;;;;;;21.75;19.25;;;;;6.12;70.66;101354.47;5099369;27;45595;-61
2021/11/22 07:09:29;;;;;;;;;21.25;15.25;;;;;6.13;70.38;101359.59;5099209;27;45317;-60
2021/11/22 07:11:55;;;;;;;;;21.00;15.50;;;;;6.15;70.49;101364.75;5080675;27;55298;-61
2021/11/22 07:14:20;;;;;;;;;21.00;16.75;;;;;6.18;70.52;101360.19;5099071;27;51950;-61
2021/11/22 07:16:45;;;;;;;;;20.00;19.75;;;;;6.20;70.40;101373.97;5099134;27;45413;-61
2021/11/22 07:19:11;;;;;;;;;23.50;20.50;;;;;6.22;70.31;101372.13;5099269;27;45317;-61
2021/11/22 07:21:36;;;;;;;;;19.50;16.50;;;;;6.25;70.26;101376.34;5098365;27;63354;-61
2021/11/22 07:24:01;;;;;;;;;26.25;21.75;;;;;6.28;70.10;101375.31;5079930;27;62306;-60
2021/11/22 07:26:27;;;;;;;;;20.50;16.25;;;;;6.30;70.00;101384.75;5099120;27;45332;-60
2021/11/22 07:28:52;;;;;;;;;22.25;16.50;;;;;6.32;70.27;101390.75;5099100;27;45217;-61
2021/11/22 07:31:18;;;;;;;;;24.50;19.50;;;;;6.34;70.27;101398.47;5099057;27;45235;-61
2021/11/22 07:33:43;;;;;;;;;21.00;17.00;;;;;6.37;69.97;101401.72;5097962;27;45207;-61
2021/11/22 07:36:09;;;;;;;;;22.50;18.00;;;;;6.38;70.27;101413.84;5098121;27;66016;-61
2021/11/22 07:38:35;;;;;;;;;16.25;16.25;;;;;6.42;70.12;101411.94;5099006;27;45319;-61
2021/11/22 07:41:01;;;;;;;;;17.75;15.00;;;;;6.44;69.87;101417.06;5098460;27;45289;-61
2021/11/22 07:43:26;;;;;;;;;17.75;14.50;;;;;6.45;69.85;101416.13;5098976;27;45505;-61
2021/11/22 07:45:52;;;;;;;;;17.25;13.00;;;;;6.47;69.99;101412.50;5097884;27;68754;-61
2021/11/22 07:48:17;;;;;;;;;15.25;13.50;;;;;6.51;69.64;101418.38;5079779;27;63443;-61
2021/11/22 07:50:43;;;;;;;;;16.00;13.25;;;;;6.51;69.56;101432.28;5098979;27;45406;-60
2021/11/22 07:53:08;;;;;;;;;15.00;14.00;;;;;6.55;69.53;101430.34;5098851;27;45291;-61
2021/11/22 07:55:34;;;;;;;;;15.25;11.50;;;;;6.56;69.50;101428.59;5098543;27;46012;-61
2021/11/22 07:57:59;;;;;;;;;19.00;14.25;;;;;6.60;69.52;101436.16;5098029;27;63983;-60
2021/11/22 08:00:25;;;;;;;;;17.25;14.00;;;;;6.63;69.48;101442.94;5098515;27;47066;-61
2021/11/22 08:02:51;;;;;;;;;20.25;16.00;;;;;6.64;69.15;101445.47;5080366;27;45297;-60
2021/11/22 08:05:16;;;;;;;;;17.00;13.25;;;;;6.67;68.92;101445.31;5098610;27;46122;-61
2021/11/22 08:07:42;;;;;;;;;19.25;18.50;;;;;6.69;68.82;101447.81;5098530;27;45255;-60
2021/11/22 08:12:56;;;;;;;;;17.25;13.50;;;;;6.73;68.57;101445.88;5098485;27;45390;-61
2021/11/22 08:15:22;;;;;;;;;16.25;12.75;;;;;6.77;68.42;101455.25;5097855;27;46201;-61
2021/11/22 08:17:47;;;;;;;;;18.25;15.00;;;;;6.82;68.75;101458.44;5078906;27;66768;-61
2021/11/22 08:20:13;;;;;;;;;17.00;15.50;;;;;6.86;68.43;101462.53;5079886;27;45360;-61
2021/11/22 08:22:39;;;;;;;;;21.75;15.25;;;;;6.90;68.39;101456.19;5098099;27;45660;-61
2021/11/22 08:25:05;;;;;;;;;17.00;14.50;;;;;6.96;68.36;101461.06;5098148;27;45415;-61
2021/11/22 08:27:31;;;;;;;;;17.75;15.00;;;;;7.01;68.37;101462.56;5098083;27;45456;-61
2021/11/22 08:29:58;;;;;;;;;17.75;11.25;;;;;7.06;68.01;101456.16;5098355;27;45440;-61
2021/11/22 08:32:23;;;;;;;;;17.25;15.00;;;;;7.10;67.77;101459.41;5098305;27;45391;-61
2021/11/22 08:34:48;;;;;;;;;11.50;11.50;;;;;7.13;67.56;101462.69;5097432;27;68952;-61
2021/11/22 08:37:14;;;;;;;;;14.00;11.25;;;;;7.16;67.39;101455.56;5097288;27;67322;-61
2021/11/22 08:39:39;;;;;;;;;15.75;13.75;;;;;7.18;67.22;101454.56;5097040;27;67239;-61
2021/11/22 08:42:05;;;;;;;;;15.75;13.50;;;;;7.19;67.27;101456.25;5098267;27;45181;-61
2021/11/22 08:44:31;;;;;;;;;14.50;11.50;;;;;7.21;67.26;101464.84;5096830;27;45208;-60
2021/11/22 08:46:56;;;;;;;;;13.00;11.00;;;;;7.22;67.21;101466.53;5097562;27;45342;-60
2021/11/22 08:49:22;;;;;;;;;16.25;10.50;;;;;7.25;66.92;101471.59;5097848;27;45311;-61
2021/11/22 08:51:47;;;;;;;;;15.50;13.00;;;;;7.26;67.08;101473.25;5097518;27;53441;-61
2021/11/22 08:54:13;;;;;;;;;10.25;9.50;;;;;7.29;66.42;101482.69;5097292;27;46393;-61
2021/11/22 08:56:38;;;;;;;;;15.25;8.00;;;;;7.30;66.29;101486.16;5097135;27;64083;-61
2021/11/22 08:59:03;;;;;;;;;9.25;8.50;;;;;7.32;65.93;101484.28;5079637;27;45416;-61
2021/11/22 09:01:29;;;;;;;;;11.75;9.00;;;;;7.36;65.56;101491.03;5096945;27;68104;-61
2021/11/22 09:03:55;;;;;;;;;9.50;6.00;;;;;7.41;65.76;101481.13;5097619;27;46090;-61
2021/11/22 09:06:20;;;;;;;;;14.50;9.00;;;;;7.50;65.23;101500.66;5097617;27;45292;-61
2021/11/22 09:08:46;;;;;;;;;8.75;8.75;;;;;7.59;64.95;101505.31;5096782;27;64527;-61
2021/11/22 09:11:12;;;;;;;;;9.50;7.75;;;;;7.70;64.82;101505.50;5079436;27;45236;-61
2021/11/22 09:13:38;;;;;;;;;8.50;7.25;;;;;7.85;64.22;101495.03;5097390;27;46030;-61
2021/11/22 09:16:04;;;;;;;;;9.00;9.00;;;;;8.02;64.27;101504.44;5097368;27;45937;-61
2021/11/22 09:18:29;;;;;;;;;8.75;6.50;;;;;8.22;64.13;101518.06;5097044;27;53734;-61
2021/11/22 09:20:54;;;;;;;;;9.75;8.50;;;;;8.42;63.39;101511.56;5096899;27;45399;-61
2021/11/22 09:23:20;;;;;;;;;9.25;6.00;;;;;8.63;62.68;101525.09;5097347;27;46290;-61
2021/11/22 09:25:45;;;;;;;;;14.25;12.00;;;;;8.82;62.33;101532.59;5096340;27;71810;-61
2021/11/22 09:28:11;;;;;;;;;12.50;9.75;;;;;9.02;61.39;101526.06;5097175;27;45413;-61
2021/11/22 09:30:37;;;;;;;;;9.00;5.75;;;;;9.22;61.23;101523.91;5097530;27;45443;-61
2021/11/22 09:33:04;;;;;;;;;9.25;7.00;;;;;9.46;60.74;101536.31;5097206;27;45560;-62
2021/11/22 09:35:29;;;;;;;;;10.00;6.75;;;;;9.65;60.18;101536.72;5097195;27;45940;-61
2021/11/22 09:37:54;;;;;;;;;6.00;6.00;;;;;9.86;59.49;101545.84;5097256;27;45327;-61
2021/11/22 09:40:20;;;;;;;;;6.25;6.25;;;;;10.03;58.52;101531.56;5097029;27;45478;-61
2021/11/22 09:42:45;;;;;;;;;7.50;5.25;;;;;10.20;58.06;101535.63;5078929;27;45350;-61
2021/11/22 09:45:11;;;;;;;;;53.75;42.50;;;;;10.35;57.26;101544.19;5097103;27;45421;-61
2021/11/22 09:47:37;;;;;;;;;8.00;7.00;;;;;10.49;56.70;101546.69;5097318;27;45294;-61
2021/11/22 09:50:03;;;;;;;;;12.00;8.00;;;;;10.64;56.59;101557.03;5097052;27;45515;-61
2021/11/22 09:52:29;;;;;;;;;8.50;6.75;;;;;10.80;56.18;101548.88;5096777;27;46195;-62
2021/11/22 09:54:55;;;;;;;;;7.00;7.00;;;;;10.94;55.35;101561.84;5078757;27;45384;-61
2021/11/22 09:57:20;;;;;;;;;5.75;5.75;;;;;11.07;54.67;101559.16;5095896;27;45260;-62
2021/11/22 09:59:46;;;;;;;;;5.50;5.50;;;;;11.20;54.68;101561.69;5096845;27;45604;-61
2021/11/22 10:02:11;;;;;;;;;9.75;6.00;;;;;11.32;54.51;101565.19;5096739;27;45606;-62
2021/11/22 10:04:37;;;;;;;;;7.75;7.75;;;;;11.42;53.43;101568.81;5096689;27;45371;-61
2021/11/22 10:07:06;;;;;;;;;6.25;6.00;;;;;11.51;53.65;101566.44;5096759;27;45532;-61
2021/11/22 10:09:35;;;;;;;;;5.50;5.50;;;;;11.53;53.19;101570.63;5096662;27;45663;-61
2021/11/22 10:12:00;;;;;;;;;8.25;6.50;;;;;11.56;53.32;101578.28;5096620;27;45354;-61
2021/11/22 10:14:29;;;;;;;;;9.00;6.00;;;;;11.53;53.76;101577.69;5096635;27;45193;-61
2021/11/22 10:16:55;;;;;;;;;6.00;6.00;;;;;11.45;53.35;101577.44;5078367;27;45274;-61
2021/11/22 10:19:20;;;;;;;;;7.00;4.75;;;;;11.33;53.70;101587.94;5078447;27;45615;-62
2021/11/22 10:21:46;;;;;;;;;7.75;6.50;;;;;11.19;53.32;101586.34;5095323;27;75681;-61
2021/11/22 10:24:11;;;;;;;;;10.25;7.50;;;;;11.02;53.90;101590.22;5095684;27;66410;-61
2021/11/22 10:26:37;;;;;;;;;7.00;7.00;;;;;10.87;53.67;101596.59;5096348;27;45549;-61
2021/11/22 10:29:03;;;;;;;;;6.75;6.75;;;;;10.71;54.59;101591.63;5078062;27;45581;-61
2021/11/22 10:31:29;;;;;;;;;7.00;5.75;;;;;10.54;54.29;101588.41;5095737;27;64901;-62
2021/11/22 10:33:57;;;;;;;;;7.00;6.00;;;;;10.40;54.19;101592.00;5096238;27;45485;-62
2021/11/22 10:36:23;;;;;;;;;9.25;7.75;;;;;10.28;54.67;101591.06;5095739;27;45366;-61
2021/11/22 10:38:57;;;;;;;;;8.50;6.75;;;;;10.17;55.33;101594.44;5095473;27;45397;-61
2021/11/22 10:41:25;;;;;;;;;7.25;7.00;;;;;10.10;55.13;101591.41;5095894;27;46670;-61
2021/11/22 10:43:55;;;;;;;;;9.00;8.00;;;;;10.06;55.44;101597.00;5096370;27;46027;-61
2021/11/22 10:46:33;;;;;;;;;8.25;6.75;;;;;9.99;54.97;101607.06;5096003;27;45306;-61
2021/11/22 10:49:16;;;;;;;;;7.00;7.00;;;;;9.91;55.00;101610.22;5076272;27;45537;-61
2021/11/22 10:51:50;;;;;;;;;8.00;6.00;;;;;9.87;55.22;101610.53;5095441;27;45697;-61
2021/11/22 10:54:18;;;;;;;;;8.00;7.00;;;;;9.81;55.21;101611.78;5096130;27;45810;-61
2021/11/22 10:56:45;;;;;;;;;7.50;7.50;;;;;9.76;55.39;101606.00;5077827;27;45281;-61
2021/11/22 10:59:14;;;;;;;;;6.75;6.50;;;;;9.72;55.38;101612.41;5095933;27;45504;-62
2021/11/22 11:01:55;;;;;;;;;8.25;7.00;;;;;9.65;55.56;101610.19;5095718;27;45412;-61
2021/11/22 11:04:26;;;;;;;;;11.00;6.25;;;;;9.61;55.66;101608.72;5095754;27;45835;-61
2021/11/22 11:07:01;;;;;;;;;7.25;7.00;;;;;9.57;55.72;101602.00;5078542;27;45348;-62
2021/11/22 11:09:31;;;;;;;;;10.25;9.25;;;;;9.55;55.62;101614.38;5098471;27;45635;-61
2021/11/22 11:12:12;;;;;;;;;9.25;7.00;;;;;9.55;55.56;101611.75;5099407;27;46229;-61
2021/11/22 11:14:45;;;;;;;;;5.25;5.00;;;;;9.53;55.59;101610.19;5081682;27;45831;-61
2021/11/22 11:17:13;;;;;;;;;11.25;8.00;;;;;9.51;55.55;101607.69;5099647;27;45459;-61
2021/11/22 11:19:39;;;;;;;;;9.75;8.75;;;;;9.47;55.21;101614.91;5099422;27;45351;-62
2021/11/22 11:22:04;;;;;;;;;12.75;8.00;;;;;9.41;55.07;101607.44;5099127;27;46044;-62